createdAt,value
2019-03-16T00:02:39.073Z,1.97
2019-03-16T00:06:51.874Z,2.30
2019-03-16T00:11:04.499Z,2.47
2019-03-16T00:15:16.736Z,2.37
2019-03-16T00:19:30.076Z,2.40
2019-03-16T00:23:42.787Z,2.43
2019-03-16T00:27:55.378Z,1.77
2019-03-16T00:32:13.255Z,1.53
2019-03-16T00:36:21.683Z,1.70
2019-03-16T00:40:35.225Z,2.27
2019-03-16T00:44:47.546Z,2.53
2019-03-16T00:49:00.535Z,2.20
2019-03-16T00:53:12.992Z,2.93
2019-03-16T00:57:25.522Z,2.57
2019-03-16T01:01:38.287Z,2.20
2019-03-16T01:05:50.649Z,2.07
2019-03-16T01:10:03.058Z,2.50
2019-03-16T01:14:16.020Z,2.27
2019-03-16T01:18:28.509Z,1.93
2019-03-16T01:22:40.927Z,2.10
2019-03-16T01:26:53.813Z,2.27
2019-03-16T01:31:06.446Z,2.03
2019-03-16T01:35:18.779Z,2.13
2019-03-16T01:39:31.564Z,2.60
2019-03-16T01:43:44.192Z,2.53
2019-03-16T01:47:57.135Z,2.77
2019-03-16T01:52:09.579Z,2.63
2019-03-16T01:56:22.109Z,2.63
2019-03-16T02:00:34.984Z,3.10
2019-03-16T02:04:47.336Z,2.43
2019-03-16T02:08:59.651Z,1.70
2019-03-16T02:13:12.032Z,1.80
2019-03-16T02:17:24.882Z,1.50
2019-03-16T02:21:37.307Z,1.53
2019-03-16T02:25:50.192Z,2.17
2019-03-16T02:30:02.684Z,1.73
2019-03-16T02:34:15.064Z,2.00
2019-03-16T02:38:28.496Z,1.97
2019-03-16T02:42:40.907Z,1.50
2019-03-16T02:46:53.665Z,2.30
2019-03-16T02:51:06.266Z,2.30
2019-03-16T02:55:18.664Z,2.03
2019-03-16T02:59:31.583Z,2.13
2019-03-16T03:03:44.024Z,2.50
2019-03-16T03:07:57.021Z,2.57
2019-03-16T03:12:09.461Z,1.90
2019-03-16T03:16:21.960Z,1.70
2019-03-16T03:20:34.767Z,2.10
2019-03-16T03:24:47.221Z,2.50
2019-03-16T03:29:00.216Z,3.00
2019-03-16T03:33:12.567Z,2.93
2019-03-16T03:37:25.566Z,2.63
2019-03-16T03:41:38.217Z,2.27
2019-03-16T03:45:50.626Z,2.67
2019-03-16T03:50:04.148Z,2.60
2019-03-16T03:54:17.063Z,2.77
2019-03-16T03:58:29.751Z,2.70
2019-03-16T04:02:42.137Z,3.47
2019-03-16T04:06:54.923Z,2.87
2019-03-16T04:11:07.384Z,3.07
2019-03-16T04:15:19.689Z,3.83
2019-03-16T04:19:32.676Z,3.47
2019-03-16T04:23:45.244Z,3.33
2019-03-16T04:27:58.765Z,3.37
2019-03-16T04:32:11.092Z,3.50
2019-03-16T04:36:23.501Z,3.73
2019-03-16T04:40:36.192Z,3.57
2019-03-16T04:44:48.647Z,3.17
2019-03-16T04:49:00.955Z,3.47
2019-03-16T04:53:13.327Z,3.33
2019-03-16T04:57:26.128Z,3.90
2019-03-16T05:01:38.792Z,3.80
2019-03-16T05:05:51.557Z,3.60
2019-03-16T05:10:07.044Z,3.60
2019-03-16T05:14:18.011Z,3.03
2019-03-16T05:18:30.904Z,3.73
2019-03-16T05:22:43.478Z,2.40
2019-03-16T05:26:55.767Z,2.43
2019-03-16T05:31:08.101Z,4.00
2019-03-16T05:35:20.872Z,3.00
2019-03-16T05:39:33.441Z,3.83
2019-03-16T05:43:45.740Z,4.37
2019-03-16T05:47:58.534Z,3.97
2019-03-16T05:52:10.999Z,4.87
2019-03-16T05:56:23.460Z,4.13
2019-03-16T06:00:36.248Z,4.23
2019-03-16T06:04:48.816Z,4.03
2019-03-16T06:09:01.736Z,4.33
2019-03-16T06:13:14.294Z,4.93
2019-03-16T06:17:26.804Z,3.20
2019-03-16T06:21:39.115Z,2.77
2019-03-16T06:25:51.864Z,3.00
2019-03-16T06:30:04.364Z,2.40
2019-03-16T06:34:16.668Z,2.77
2019-03-16T06:38:30.216Z,2.47
2019-03-16T06:42:42.522Z,2.80
2019-03-16T06:46:55.977Z,2.93
2019-03-16T06:51:08.366Z,2.43
2019-03-16T06:55:21.276Z,3.50
2019-03-16T06:59:33.792Z,2.73
2019-03-16T07:03:46.204Z,3.60
2019-03-16T07:07:58.874Z,4.37
2019-03-16T07:12:11.596Z,3.73
2019-03-16T07:16:23.900Z,3.27
2019-03-16T07:20:36.795Z,3.53
2019-03-16T07:24:51.724Z,3.27
2019-03-16T07:29:03.149Z,3.50
2019-03-16T07:33:15.501Z,3.23
2019-03-16T07:37:28.087Z,3.90
2019-03-16T07:41:40.546Z,4.10
2019-03-16T07:45:52.957Z,3.90
2019-03-16T07:50:06.563Z,5.07
2019-03-16T07:54:19.315Z,5.00
2019-03-16T07:58:32.005Z,4.20
2019-03-16T08:02:44.440Z,4.40
2019-03-16T08:06:57.097Z,4.30
2019-03-16T08:11:09.608Z,4.73
2019-03-16T08:15:21.915Z,5.07
2019-03-16T08:19:34.715Z,4.93
2019-03-16T08:23:47.412Z,4.10
2019-03-16T08:28:00.808Z,4.30
2019-03-16T08:32:13.182Z,4.40
2019-03-16T08:36:26.012Z,3.30
2019-03-16T08:40:38.574Z,2.90
2019-03-16T08:44:50.877Z,3.00
2019-03-16T08:49:04.315Z,2.10
2019-03-16T08:53:16.633Z,2.20
2019-03-16T08:57:29.523Z,2.60
2019-03-16T09:01:42.105Z,2.83
2019-03-16T09:05:54.484Z,2.90
2019-03-16T09:10:08.048Z,2.60
2019-03-16T09:14:20.924Z,2.90
2019-03-16T09:18:33.399Z,2.40
2019-03-16T09:22:45.794Z,2.70
2019-03-16T09:26:59.131Z,3.20
2019-03-16T09:31:11.444Z,3.30
2019-03-16T09:35:23.816Z,2.40
2019-03-16T09:39:36.548Z,2.83
2019-03-16T09:43:48.996Z,2.43
2019-03-16T09:48:01.891Z,2.93
2019-03-16T09:52:14.443Z,2.97
2019-03-16T09:56:26.752Z,4.03
2019-03-16T10:00:39.347Z,3.43
2019-03-16T10:04:52.063Z,3.53
2019-03-16T10:09:04.648Z,3.63
2019-03-16T10:13:17.414Z,3.23
2019-03-16T10:17:29.861Z,3.30
2019-03-16T10:21:42.267Z,3.10
2019-03-16T10:25:55.063Z,3.00
2019-03-16T10:30:09.391Z,3.30
2019-03-16T10:34:21.672Z,3.20
2019-03-16T10:38:34.524Z,3.47
2019-03-16T10:42:47.022Z,2.53
2019-03-16T10:46:59.796Z,2.60
2019-03-16T10:51:12.406Z,3.10
2019-03-16T10:55:25.342Z,3.40
2019-03-16T10:59:37.911Z,3.90
2019-03-16T11:03:50.891Z,2.87
2019-03-16T11:08:03.419Z,3.60
2019-03-16T11:12:16.240Z,3.33
2019-03-16T11:16:28.702Z,4.27
2019-03-16T11:20:41.102Z,3.97
2019-03-16T11:24:54.008Z,4.27
2019-03-16T11:29:09.162Z,3.57
2019-03-16T11:33:20.310Z,4.13
2019-03-16T11:37:33.279Z,3.83
2019-03-16T11:41:45.855Z,3.47
2019-03-16T11:45:58.157Z,4.07
2019-03-16T11:50:11.713Z,3.83
2019-03-16T11:54:24.011Z,4.47
2019-03-16T11:58:36.915Z,4.13
2019-03-16T12:02:49.397Z,2.77
2019-03-16T12:07:02.359Z,3.07
2019-03-16T12:11:14.985Z,3.63
2019-03-16T12:15:27.315Z,3.40
2019-03-16T12:19:40.555Z,3.50
2019-03-16T12:23:52.859Z,3.87
2019-03-16T12:28:05.567Z,4.20
2019-03-16T12:32:18.111Z,4.53
2019-03-16T12:36:30.422Z,3.93
2019-03-16T12:40:43.565Z,3.70
2019-03-16T12:44:55.972Z,3.10
2019-03-16T12:49:14.338Z,3.27
2019-03-16T12:53:27.316Z,3.20
2019-03-16T12:57:39.892Z,3.77
2019-03-16T13:01:52.871Z,4.13
2019-03-16T13:06:05.428Z,4.70
2019-03-16T13:10:17.854Z,4.70
2019-03-16T13:14:30.220Z,4.00
2019-03-16T13:18:42.939Z,4.20
2019-03-16T13:22:55.299Z,4.33
2019-03-16T13:27:08.224Z,4.87
2019-03-16T13:31:20.844Z,3.90
2019-03-16T13:35:33.262Z,4.53
2019-03-16T13:39:46.699Z,3.37
2019-03-16T13:43:59.092Z,2.97
2019-03-16T13:48:11.695Z,3.17
2019-03-16T13:52:24.254Z,4.00
2019-03-16T13:56:36.551Z,3.47
2019-03-16T14:00:49.450Z,4.00
2019-03-16T14:05:02.144Z,3.93
2019-03-16T14:09:15.239Z,3.60
2019-03-16T14:13:27.764Z,3.63
2019-03-16T14:17:40.819Z,4.63
2019-03-16T14:21:53.414Z,4.33
2019-03-16T14:26:06.507Z,4.63
2019-03-16T14:30:34.882Z,3.93
2019-03-16T14:34:32.801Z,4.60
2019-03-16T14:38:46.253Z,4.27
2019-03-16T14:42:58.972Z,4.60
2019-03-16T14:47:12.023Z,4.33
2019-03-16T14:51:24.915Z,3.93
2019-03-16T14:55:37.617Z,5.37
2019-03-16T14:59:50.272Z,5.10
2019-03-16T15:04:03.184Z,3.90
2019-03-16T15:08:15.618Z,4.17
2019-03-16T15:12:28.019Z,3.70
2019-03-16T15:16:41.372Z,3.40
2019-03-16T15:20:53.741Z,3.60
2019-03-16T15:25:06.469Z,4.17
2019-03-16T15:29:19.059Z,4.57
2019-03-16T15:33:31.336Z,3.50
2019-03-16T15:37:44.126Z,4.47
2019-03-16T15:41:56.739Z,3.87
2019-03-16T15:46:09.092Z,4.47
2019-03-16T15:50:22.328Z,4.47
2019-03-16T15:54:34.783Z,3.70
2019-03-16T15:58:47.538Z,4.57
2019-03-16T16:03:00.221Z,3.67
2019-03-16T16:07:13.091Z,4.00
2019-03-16T16:11:25.635Z,4.50
2019-03-16T16:15:38.277Z,4.50
2019-03-16T16:19:50.837Z,4.60
2019-03-16T16:24:03.365Z,4.57
2019-03-16T16:28:16.244Z,5.07
2019-03-16T16:32:28.840Z,5.33
2019-03-16T16:36:41.339Z,4.87
2019-03-16T16:40:54.144Z,4.17
2019-03-16T16:45:07.077Z,4.33
2019-03-16T16:49:19.426Z,4.07
2019-03-16T16:53:31.815Z,5.07
2019-03-16T16:57:44.528Z,5.63
2019-03-16T17:01:57.114Z,5.40
2019-03-16T17:06:09.619Z,4.97
2019-03-16T17:10:22.603Z,5.07
2019-03-16T17:14:35.175Z,5.07
2019-03-16T17:18:48.691Z,4.57
2019-03-16T17:23:01.023Z,4.10
2019-03-16T17:27:13.955Z,4.53
2019-03-16T17:31:26.554Z,4.77
2019-03-16T17:35:38.883Z,5.20
2019-03-16T17:39:51.842Z,4.70
2019-03-16T17:44:04.414Z,4.80
2019-03-16T17:48:17.402Z,5.07
2019-03-16T17:52:29.856Z,5.77
2019-03-16T17:56:42.411Z,5.00
2019-03-16T18:00:54.783Z,5.13
2019-03-16T18:05:07.700Z,5.60
2019-03-16T18:09:20.041Z,5.13
2019-03-16T18:13:32.340Z,5.07
2019-03-16T18:17:45.786Z,4.67
2019-03-16T18:21:58.105Z,5.67
2019-03-16T18:26:10.993Z,4.37
2019-03-16T18:30:23.979Z,5.50
2019-03-16T18:34:36.374Z,4.77
2019-03-16T18:38:48.780Z,4.73
2019-03-16T18:43:01.680Z,5.17
2019-03-16T18:47:14.119Z,5.20
2019-03-16T18:51:26.428Z,5.20
2019-03-16T18:55:38.644Z,5.27
2019-03-16T18:59:52.310Z,5.00
2019-03-16T19:04:05.352Z,5.77
2019-03-16T19:08:17.846Z,5.23
2019-03-16T19:12:30.256Z,6.63
2019-03-16T19:16:43.038Z,6.40
2019-03-16T19:20:55.504Z,6.10
2019-03-16T19:25:08.461Z,5.83
2019-03-16T19:29:21.051Z,6.23
2019-03-16T19:33:33.416Z,5.97
2019-03-16T19:37:46.901Z,5.27
2019-03-16T19:41:59.310Z,5.93
2019-03-16T19:46:12.103Z,5.97
2019-03-16T19:50:24.661Z,6.13
2019-03-16T19:54:37.076Z,6.00
2019-03-16T19:59:00.163Z,6.47
2019-03-16T20:03:04.027Z,6.17
2019-03-16T20:07:19.451Z,6.40
2019-03-16T20:11:31.043Z,6.03
2019-03-16T20:15:44.021Z,6.73
2019-03-16T20:19:57.780Z,5.70
2019-03-16T20:24:10.135Z,6.17
2019-03-16T20:28:23.674Z,6.07
2019-03-16T20:32:36.183Z,6.67
2019-03-16T20:36:49.088Z,6.00
2019-03-16T20:41:01.759Z,6.00
2019-03-16T20:45:14.236Z,6.57
2019-03-16T20:49:26.980Z,5.93
2019-03-16T20:53:39.391Z,7.07
2019-03-16T20:57:51.804Z,7.23
2019-03-16T21:02:04.120Z,6.80
2019-03-16T21:06:18.433Z,6.93
2019-03-16T21:10:32.355Z,6.67
2019-03-16T21:14:44.747Z,6.70
2019-03-16T21:18:57.064Z,8.00
2019-03-16T21:23:09.377Z,7.00
2019-03-16T21:27:22.163Z,7.20
2019-03-16T21:31:34.616Z,7.73
2019-03-16T21:35:47.011Z,7.47
2019-03-16T21:39:59.716Z,7.70
2019-03-16T21:44:12.072Z,9.03
2019-03-16T21:48:24.375Z,8.80
2019-03-16T21:52:36.687Z,6.90
2019-03-16T21:56:49.588Z,5.57
2019-03-16T22:01:02.049Z,15.17
2019-03-16T22:05:14.982Z,27.23
2019-03-16T22:09:27.927Z,9.27
2019-03-16T22:13:40.571Z,2.93
2019-03-16T22:17:53.036Z,5.63
2019-03-16T22:22:05.444Z,3.60
2019-03-16T22:26:18.133Z,2.90
2019-03-16T22:30:31.779Z,3.10
2019-03-16T22:34:44.304Z,2.40
2019-03-16T22:38:57.941Z,2.67
2019-03-16T22:43:10.252Z,1.53
2019-03-16T22:47:22.911Z,2.13
2019-03-16T22:51:35.331Z,2.33
2019-03-16T22:55:47.636Z,2.37
2019-03-16T23:00:00.522Z,2.20
2019-03-16T23:04:12.991Z,2.73
2019-03-16T23:08:25.560Z,2.80
2019-03-16T23:12:38.338Z,2.10
2019-03-16T23:16:50.745Z,2.10
2019-03-16T23:21:03.045Z,2.23
2019-03-16T23:25:15.842Z,2.90
2019-03-16T23:29:29.486Z,2.63
2019-03-16T23:33:41.835Z,2.10
2019-03-16T23:37:54.135Z,2.60
2019-03-16T23:42:06.432Z,2.17
2019-03-16T23:46:19.040Z,2.40
2019-03-16T23:50:32.632Z,2.73
2019-03-16T23:54:45.053Z,1.93
2019-03-16T23:58:58.584Z,2.33
